sensor_id;sensor_type;location;lat;lon;timestamp;temperature;humidity
3770;DHT22;1900;48.890;9.190;2022-11-15T00:37:38;14.60;67.20
3770;DHT22;1900;48.890;9.190;2022-11-15T00:40:22;14.60;67.30
3770;DHT22;1900;48.890;9.190;2022-11-15T00:43:06;14.60;67.30
3770;DHT22;1900;48.890;9.190;2022-11-15T00:45:50;14.70;67.30
3770;DHT22;1900;48.890;9.190;2022-11-15T00:48:34;14.70;67.30
3770;DHT22;1900;48.890;9.190;2022-11-15T00:51:18;14.70;67.20
3770;DHT22;1900;48.890;9.190;2022-11-15T00:54:02;14.70;67.20
3770;DHT22;1900;48.890;9.190;2022-11-15T00:56:47;14.80;67.30
3770;DHT22;1900;48.890;9.190;2022-11-15T00:59:31;14.80;67.30
3770;DHT22;1900;48.890;9.190;2022-11-15T01:02:15;14.80;67.20
3770;DHT22;1900;48.890;9.190;2022-11-15T01:04:59;14.80;67.20
3770;DHT22;1900;48.890;9.190;2022-11-15T01:07:44;14.80;67.10
3770;DHT22;1900;48.890;9.190;2022-11-15T01:10:28;14.80;67.10
3770;DHT22;1900;48.890;9.190;2022-11-15T01:13:13;14.90;67.20
3770;DHT22;1900;48.890;9.190;2022-11-15T01:15:57;14.80;67.00
3770;DHT22;1900;48.890;9.190;2022-11-15T01:18:41;14.90;67.10
3770;DHT22;1900;48.890;9.190;2022-11-15T01:21:26;14.80;66.80
3770;DHT22;1900;48.890;9.190;2022-11-15T01:24:13;14.80;66.80
3770;DHT22;1900;48.890;9.190;2022-11-15T01:26:58;14.80;66.70
3770;DHT22;1900;48.890;9.190;2022-11-15T01:29:42;14.80;66.70
3770;DHT22;1900;48.890;9.190;2022-11-15T01:32:26;14.80;66.70
3770;DHT22;1900;48.890;9.190;2022-11-15T01:35:10;14.80;66.70
3770;DHT22;1900;48.890;9.190;2022-11-15T01:37:54;14.80;66.60
3770;DHT22;1900;48.890;9.190;2022-11-15T01:40:39;14.80;66.50
3770;DHT22;1900;48.890;9.190;2022-11-15T01:43:35;14.70;66.40
3770;DHT22;1900;48.890;9.190;2022-11-15T01:49:19;14.70;66.40
3770;DHT22;1900;48.890;9.190;2022-11-15T01:52:10;14.60;66.20
3770;DHT22;1900;48.890;9.190;2022-11-15T01:55:34;14.60;66.20
3770;DHT22;1900;48.890;9.190;2022-11-15T01:58:11;14.60;66.20
3770;DHT22;1900;48.890;9.190;2022-11-15T02:00:55;14.60;66.20
3770;DHT22;1900;48.890;9.190;2022-11-15T02:03:49;14.60;66.30
3770;DHT22;1900;48.890;9.190;2022-11-15T02:06:36;14.60;66.30
3770;DHT22;1900;48.890;9.190;2022-11-15T02:09:20;14.60;66.30
3770;DHT22;1900;48.890;9.190;2022-11-15T02:12:05;14.60;66.30
3770;DHT22;1900;48.890;9.190;2022-11-15T02:14:53;14.60;66.40
3770;DHT22;1900;48.890;9.190;2022-11-15T02:17:43;14.50;66.30
3770;DHT22;1900;48.890;9.190;2022-11-15T02:36:15;14.70;66.60
3770;DHT22;1900;48.890;9.190;2022-11-15T02:39:23;14.60;66.60
3770;DHT22;1900;48.890;9.190;2022-11-15T02:42:30;14.70;66.80
3770;DHT22;1900;48.890;9.190;2022-11-15T02:45:39;14.70;66.80
3770;DHT22;1900;48.890;9.190;2022-11-15T02:48:25;14.70;66.90
3770;DHT22;1900;48.890;9.190;2022-11-15T02:51:10;14.80;67.00
3770;DHT22;1900;48.890;9.190;2022-11-15T02:53:55;14.80;67.00
3770;DHT22;1900;48.890;9.190;2022-11-15T02:56:40;14.80;67.00
3770;DHT22;1900;48.890;9.190;2022-11-15T03:11:24;14.90;67.00
3770;DHT22;1900;48.890;9.190;2022-11-15T03:14:24;15.00;67.00
3770;DHT22;1900;48.890;9.190;2022-11-15T03:17:22;15.00;67.00
3770;DHT22;1900;48.890;9.190;2022-11-15T03:20:08;14.90;66.80
3770;DHT22;1900;48.890;9.190;2022-11-15T03:23:00;14.90;66.80
3770;DHT22;1900;48.890;9.190;2022-11-15T03:25:48;14.90;66.80
3770;DHT22;1900;48.890;9.190;2022-11-15T03:31:38;15.00;66.80
3770;DHT22;1900;48.890;9.190;2022-11-15T03:34:41;15.00;66.80
3770;DHT22;1900;48.890;9.190;2022-11-15T03:37:35;14.90;66.50
3770;DHT22;1900;48.890;9.190;2022-11-15T03:40:35;14.90;66.40
3770;DHT22;1900;48.890;9.190;2022-11-15T03:46:37;14.80;66.00
3770;DHT22;1900;48.890;9.190;2022-11-15T03:49:28;14.80;66.00
3770;DHT22;1900;48.890;9.190;2022-11-15T03:52:18;14.70;65.80
3770;DHT22;1900;48.890;9.190;2022-11-15T03:55:05;14.70;65.80
3770;DHT22;1900;48.890;9.190;2022-11-15T03:57:52;14.60;65.70
3770;DHT22;1900;48.890;9.190;2022-11-15T04:00:37;14.60;65.70
3770;DHT22;1900;48.890;9.190;2022-11-15T04:03:21;14.50;65.60
3770;DHT22;1900;48.890;9.190;2022-11-15T04:06:05;14.40;65.50
3770;DHT22;1900;48.890;9.190;2022-11-15T04:08:50;14.40;65.50
3770;DHT22;1900;48.890;9.190;2022-11-15T04:11:34;14.40;65.60
3770;DHT22;1900;48.890;9.190;2022-11-15T04:14:18;14.40;65.60
3770;DHT22;1900;48.890;9.190;2022-11-15T04:17:02;14.30;65.00
3770;DHT22;1900;48.890;9.190;2022-11-15T04:19:46;14.30;65.50
3770;DHT22;1900;48.890;9.190;2022-11-15T04:23:09;14.30;65.40
3770;DHT22;1900;48.890;9.190;2022-11-15T04:26:18;14.20;65.30
3770;DHT22;1900;48.890;9.190;2022-11-15T04:29:03;14.20;65.30
3770;DHT22;1900;48.890;9.190;2022-11-15T04:32:06;14.20;65.40
3770;DHT22;1900;48.890;9.190;2022-11-15T04:34:51;14.10;65.30
3770;DHT22;1900;48.890;9.190;2022-11-15T04:37:35;14.10;65.40
3770;DHT22;1900;48.890;9.190;2022-11-15T04:40:19;14.10;65.40
3770;DHT22;1900;48.890;9.190;2022-11-15T04:43:04;14.10;65.50
3770;DHT22;1900;48.890;9.190;2022-11-15T04:45:48;14.10;65.50
3770;DHT22;1900;48.890;9.190;2022-11-15T04:48:32;14.00;65.50
3770;DHT22;1900;48.890;9.190;2022-11-15T04:51:16;14.00;65.50
3770;DHT22;1900;48.890;9.190;2022-11-15T04:54:01;14.00;65.50
3770;DHT22;1900;48.890;9.190;2022-11-15T04:56:45;14.00;65.50
3770;DHT22;1900;48.890;9.190;2022-11-15T04:59:30;14.00;66.20
3770;DHT22;1900;48.890;9.190;2022-11-15T05:02:14;14.00;65.50
3770;DHT22;1900;48.890;9.190;2022-11-15T05:04:58;14.00;65.50
3770;DHT22;1900;48.890;9.190;2022-11-15T05:07:42;14.00;65.50
3770;DHT22;1900;48.890;9.190;2022-11-15T05:10:26;13.90;65.40
3770;DHT22;1900;48.890;9.190;2022-11-15T05:13:10;13.90;65.40
3770;DHT22;1900;48.890;9.190;2022-11-15T05:15:55;13.90;65.40
3770;DHT22;1900;48.890;9.190;2022-11-15T05:18:39;13.90;65.30
3770;DHT22;1900;48.890;9.190;2022-11-15T05:21:24;13.90;65.30
3770;DHT22;1900;48.890;9.190;2022-11-15T05:24:10;13.90;65.30
3770;DHT22;1900;48.890;9.190;2022-11-15T05:26:57;13.80;65.30
3770;DHT22;1900;48.890;9.190;2022-11-15T05:29:42;13.80;65.40
3770;DHT22;1900;48.890;9.190;2022-11-15T05:32:26;13.80;65.50
3770;DHT22;1900;48.890;9.190;2022-11-15T05:35:40;13.80;65.50
3770;DHT22;1900;48.890;9.190;2022-11-15T05:38:25;13.80;65.50
3770;DHT22;1900;48.890;9.190;2022-11-15T05:41:10;13.80;65.50
3770;DHT22;1900;48.890;9.190;2022-11-15T05:43:55;13.80;65.50
3770;DHT22;1900;48.890;9.190;2022-11-15T05:46:40;13.80;65.50
3770;DHT22;1900;48.890;9.190;2022-11-15T05:49:30;13.80;65.50
3770;DHT22;1900;48.890;9.190;2022-11-15T05:52:17;13.80;65.50
3770;DHT22;1900;48.890;9.190;2022-11-15T05:55:03;13.80;65.50
3770;DHT22;1900;48.890;9.190;2022-11-15T05:57:48;13.80;65.50
3770;DHT22;1900;48.890;9.190;2022-11-15T06:00:32;13.80;65.50
3770;DHT22;1900;48.890;9.190;2022-11-15T06:03:17;13.80;65.50
3770;DHT22;1900;48.890;9.190;2022-11-15T06:06:01;13.70;65.30
3770;DHT22;1900;48.890;9.190;2022-11-15T06:08:45;13.70;65.30
3770;DHT22;1900;48.890;9.190;2022-11-15T06:11:31;13.70;65.20
3770;DHT22;1900;48.890;9.190;2022-11-15T06:14:15;13.70;65.20
3770;DHT22;1900;48.890;9.190;2022-11-15T06:17:00;13.70;65.20
3770;DHT22;1900;48.890;9.190;2022-11-15T06:19:44;13.70;65.20
3770;DHT22;1900;48.890;9.190;2022-11-15T06:22:28;13.70;65.20
3770;DHT22;1900;48.890;9.190;2022-11-15T06:25:12;13.60;65.20
3770;DHT22;1900;48.890;9.190;2022-11-15T06:27:57;13.60;65.10
3770;DHT22;1900;48.890;9.190;2022-11-15T06:30:42;13.60;65.10
3770;DHT22;1900;48.890;9.190;2022-11-15T06:33:25;13.60;65.10
3770;DHT22;1900;48.890;9.190;2022-11-15T06:36:13;13.60;65.20
3770;DHT22;1900;48.890;9.190;2022-11-15T06:38:59;13.60;65.30
3770;DHT22;1900;48.890;9.190;2022-11-15T06:41:43;13.60;65.30
3770;DHT22;1900;48.890;9.190;2022-11-15T06:44:27;13.60;65.30
3770;DHT22;1900;48.890;9.190;2022-11-15T06:47:11;13.60;65.40
3770;DHT22;1900;48.890;9.190;2022-11-15T06:49:55;13.60;65.40
3770;DHT22;1900;48.890;9.190;2022-11-15T06:52:39;13.60;65.40
3770;DHT22;1900;48.890;9.190;2022-11-15T06:55:23;13.60;65.40
3770;DHT22;1900;48.890;9.190;2022-11-15T06:58:07;13.60;65.40
3770;DHT22;1900;48.890;9.190;2022-11-15T07:00:52;13.60;65.40
3770;DHT22;1900;48.890;9.190;2022-11-15T07:03:37;13.60;65.40
3770;DHT22;1900;48.890;9.190;2022-11-15T07:06:22;13.60;65.30
3770;DHT22;1900;48.890;9.190;2022-11-15T07:09:06;13.70;65.60
3770;DHT22;1900;48.890;9.190;2022-11-15T07:11:50;13.70;65.60
3770;DHT22;1900;48.890;9.190;2022-11-15T07:14:34;13.70;65.60
3770;DHT22;1900;48.890;9.190;2022-11-15T07:17:18;13.70;65.60
3770;DHT22;1900;48.890;9.190;2022-11-15T07:20:03;13.70;65.50
3770;DHT22;1900;48.890;9.190;2022-11-15T07:22:47;13.70;65.50
3770;DHT22;1900;48.890;9.190;2022-11-15T07:25:31;13.70;65.50
3770;DHT22;1900;48.890;9.190;2022-11-15T07:28:16;13.70;65.50
3770;DHT22;1900;48.890;9.190;2022-11-15T07:31:04;13.70;65.50
3770;DHT22;1900;48.890;9.190;2022-11-15T07:33:49;13.70;65.60
3770;DHT22;1900;48.890;9.190;2022-11-15T07:36:33;13.80;65.70
3770;DHT22;1900;48.890;9.190;2022-11-15T07:39:17;13.80;65.80
3770;DHT22;1900;48.890;9.190;2022-11-15T07:42:01;13.80;65.80
3770;DHT22;1900;48.890;9.190;2022-11-15T07:45:05;13.80;65.90
3770;DHT22;1900;48.890;9.190;2022-11-15T07:47:49;13.80;65.80
3770;DHT22;1900;48.890;9.190;2022-11-15T07:50:34;13.90;66.00
3770;DHT22;1900;48.890;9.190;2022-11-15T07:53:18;13.90;66.00
3770;DHT22;1900;48.890;9.190;2022-11-15T07:56:06;13.90;66.10
3770;DHT22;1900;48.890;9.190;2022-11-15T07:58:50;14.00;66.30
3770;DHT22;1900;48.890;9.190;2022-11-15T08:01:34;14.00;66.30
3770;DHT22;1900;48.890;9.190;2022-11-15T08:04:18;14.00;66.30
3770;DHT22;1900;48.890;9.190;2022-11-15T08:07:02;14.10;66.40
3770;DHT22;1900;48.890;9.190;2022-11-15T08:09:46;14.10;66.50
3770;DHT22;1900;48.890;9.190;2022-11-15T08:12:31;14.20;66.50
3770;DHT22;1900;48.890;9.190;2022-11-15T08:15:15;14.20;66.50
3770;DHT22;1900;48.890;9.190;2022-11-15T08:18:02;14.20;66.50
3770;DHT22;1900;48.890;9.190;2022-11-15T08:20:47;14.30;66.60
3770;DHT22;1900;48.890;9.190;2022-11-15T08:23:31;14.30;66.60
3770;DHT22;1900;48.890;9.190;2022-11-15T08:26:16;14.30;66.60
3770;DHT22;1900;48.890;9.190;2022-11-15T08:29:00;14.40;66.70
3770;DHT22;1900;48.890;9.190;2022-11-15T08:31:44;14.40;66.70
3770;DHT22;1900;48.890;9.190;2022-11-15T08:34:29;14.40;66.70
3770;DHT22;1900;48.890;9.190;2022-11-15T08:37:13;14.40;66.70
3770;DHT22;1900;48.890;9.190;2022-11-15T08:39:57;14.50;66.90
3770;DHT22;1900;48.890;9.190;2022-11-15T08:42:42;14.60;67.00
3770;DHT22;1900;48.890;9.190;2022-11-15T08:45:26;14.60;67.10
3770;DHT22;1900;48.890;9.190;2022-11-15T08:48:10;14.60;67.10
3770;DHT22;1900;48.890;9.190;2022-11-15T08:50:55;14.70;67.10
3770;DHT22;1900;48.890;9.190;2022-11-15T08:53:40;14.70;67.10
3770;DHT22;1900;48.890;9.190;2022-11-15T08:56:24;14.80;67.40
3770;DHT22;1900;48.890;9.190;2022-11-15T08:59:08;14.80;67.30
3770;DHT22;1900;48.890;9.190;2022-11-15T09:01:52;14.80;67.30
3770;DHT22;1900;48.890;9.190;2022-11-15T09:04:36;14.90;67.50
3770;DHT22;1900;48.890;9.190;2022-11-15T09:07:20;15.00;67.60
3770;DHT22;1900;48.890;9.190;2022-11-15T09:10:04;15.00;67.60
3770;DHT22;1900;48.890;9.190;2022-11-15T09:12:49;15.10;67.90
3770;DHT22;1900;48.890;9.190;2022-11-15T09:15:33;15.10;67.70
3770;DHT22;1900;48.890;9.190;2022-11-15T09:18:18;15.20;67.80
3770;DHT22;1900;48.890;9.190;2022-11-15T09:21:03;15.30;67.90
3770;DHT22;1900;48.890;9.190;2022-11-15T09:23:52;15.30;67.90
3770;DHT22;1900;48.890;9.190;2022-11-15T09:26:36;15.40;68.00
3770;DHT22;1900;48.890;9.190;2022-11-15T09:29:20;15.40;68.10
3770;DHT22;1900;48.890;9.190;2022-11-15T09:32:04;15.50;68.10
3770;DHT22;1900;48.890;9.190;2022-11-15T09:34:51;15.60;68.30
3770;DHT22;1900;48.890;9.190;2022-11-15T09:37:36;15.60;68.30
3770;DHT22;1900;48.890;9.190;2022-11-15T09:40:20;15.70;68.40
3770;DHT22;1900;48.890;9.190;2022-11-15T09:49:00;15.80;68.40
3770;DHT22;1900;48.890;9.190;2022-11-15T09:51:49;15.90;68.60
3770;DHT22;1900;48.890;9.190;2022-11-15T10:00:08;16.10;68.80
3770;DHT22;1900;48.890;9.190;2022-11-15T10:05:32;16.30;69.10
3770;DHT22;1900;48.890;9.190;2022-11-15T10:10:55;16.40;69.10
3770;DHT22;1900;48.890;9.190;2022-11-15T10:13:48;16.50;69.20
3770;DHT22;1900;48.890;9.190;2022-11-15T10:24:26;16.70;69.30
3770;DHT22;1900;48.890;9.190;2022-11-15T10:26:55;16.80;69.40
3770;DHT22;1900;48.890;9.190;2022-11-15T10:29:22;16.90;69.50
3770;DHT22;1900;48.890;9.190;2022-11-15T10:31:48;16.90;69.30
3770;DHT22;1900;48.890;9.190;2022-11-15T10:34:20;17.00;69.40
3770;DHT22;1900;48.890;9.190;2022-11-15T10:36:57;17.00;69.30
3770;DHT22;1900;48.890;9.190;2022-11-15T10:39:24;17.10;69.30
3770;DHT22;1900;48.890;9.190;2022-11-15T10:41:50;17.10;69.30
3770;DHT22;1900;48.890;9.190;2022-11-15T10:44:28;17.10;69.20
3770;DHT22;1900;48.890;9.190;2022-11-15T10:49:23;17.20;69.10
3770;DHT22;1900;48.890;9.190;2022-11-15T10:54:43;17.20;69.00
3770;DHT22;1900;48.890;9.190;2022-11-15T10:57:18;17.30;69.30
3770;DHT22;1900;48.890;9.190;2022-11-15T10:59:49;17.30;69.10
3770;DHT22;1900;48.890;9.190;2022-11-15T11:02:56;17.30;69.10
3770;DHT22;1900;48.890;9.190;2022-11-15T11:07:59;17.30;69.10
3770;DHT22;1900;48.890;9.190;2022-11-15T11:10:25;17.40;69.20
3770;DHT22;1900;48.890;9.190;2022-11-15T11:12:51;17.40;69.20
3770;DHT22;1900;48.890;9.190;2022-11-15T11:15:17;17.40;69.20
3770;DHT22;1900;48.890;9.190;2022-11-15T11:20:46;17.40;69.10
3770;DHT22;1900;48.890;9.190;2022-11-15T11:51:10;17.60;69.00
3770;DHT22;1900;48.890;9.190;2022-11-15T11:56:33;17.60;69.00
3770;DHT22;1900;48.890;9.190;2022-11-15T12:01:56;17.70;69.10
3770;DHT22;1900;48.890;9.190;2022-11-15T12:04:41;17.70;69.20
3770;DHT22;1900;48.890;9.190;2022-11-15T12:07:15;17.70;69.30
3770;DHT22;1900;48.890;9.190;2022-11-15T12:09:48;17.70;69.20
3770;DHT22;1900;48.890;9.190;2022-11-15T12:17:34;17.80;70.00
3770;DHT22;1900;48.890;9.190;2022-11-15T12:30:31;18.00;69.50
3770;DHT22;1900;48.890;9.190;2022-11-15T12:33:03;18.00;69.40
3770;DHT22;1900;48.890;9.190;2022-11-15T12:35:37;18.00;69.40
3770;DHT22;1900;48.890;9.190;2022-11-15T12:38:04;18.10;69.40
3770;DHT22;1900;48.890;9.190;2022-11-15T12:40:35;18.10;69.50
3770;DHT22;1900;48.890;9.190;2022-11-15T12:45:42;18.10;69.40
3770;DHT22;1900;48.890;9.190;2022-11-15T12:51:00;18.20;69.30
3770;DHT22;1900;48.890;9.190;2022-11-15T12:53:33;18.20;69.40
3770;DHT22;1900;48.890;9.190;2022-11-15T12:58:53;18.20;69.30
3770;DHT22;1900;48.890;9.190;2022-11-15T13:06:40;18.20;69.20
3770;DHT22;1900;48.890;9.190;2022-11-15T13:11:56;18.20;69.20
3770;DHT22;1900;48.890;9.190;2022-11-15T13:14:42;18.20;69.30
3770;DHT22;1900;48.890;9.190;2022-11-15T13:17:28;18.20;69.20
3770;DHT22;1900;48.890;9.190;2022-11-15T13:22:25;18.30;69.30
3770;DHT22;1900;48.890;9.190;2022-11-15T13:27:50;18.30;69.10
3770;DHT22;1900;48.890;9.190;2022-11-15T13:30:20;18.20;69.00
3770;DHT22;1900;48.890;9.190;2022-11-15T13:32:47;18.30;69.10
3770;DHT22;1900;48.890;9.190;2022-11-15T13:35:25;18.20;69.10
3770;DHT22;1900;48.890;9.190;2022-11-15T13:37:52;18.30;69.10
3770;DHT22;1900;48.890;9.190;2022-11-15T13:40:25;18.30;69.20
3770;DHT22;1900;48.890;9.190;2022-11-15T13:42:53;18.30;69.20
3770;DHT22;1900;48.890;9.190;2022-11-15T13:45:20;18.30;69.10
3770;DHT22;1900;48.890;9.190;2022-11-15T13:47:52;18.30;69.10
3770;DHT22;1900;48.890;9.190;2022-11-15T13:50:21;18.30;69.10
3770;DHT22;1900;48.890;9.190;2022-11-15T13:52:48;18.30;69.10
3770;DHT22;1900;48.890;9.190;2022-11-15T13:55:19;18.30;69.10
3770;DHT22;1900;48.890;9.190;2022-11-15T13:57:50;18.30;69.10
3770;DHT22;1900;48.890;9.190;2022-11-15T14:00:39;18.30;69.10
3770;DHT22;1900;48.890;9.190;2022-11-15T14:03:27;18.30;69.00
3770;DHT22;1900;48.890;9.190;2022-11-15T14:06:14;18.30;69.00
3770;DHT22;1900;48.890;9.190;2022-11-15T14:11:25;18.20;68.80
3770;DHT22;1900;48.890;9.190;2022-11-15T14:16:37;18.20;68.70
3770;DHT22;1900;48.890;9.190;2022-11-15T14:19:04;18.20;68.80
3770;DHT22;1900;48.890;9.190;2022-11-15T14:21:31;18.20;68.80
3770;DHT22;1900;48.890;9.190;2022-11-15T14:24:23;18.20;68.80
3770;DHT22;1900;48.890;9.190;2022-11-15T14:26:55;18.20;68.70
3770;DHT22;1900;48.890;9.190;2022-11-15T14:29:26;18.20;68.80
3770;DHT22;1900;48.890;9.190;2022-11-15T14:31:53;18.20;68.80
3770;DHT22;1900;48.890;9.190;2022-11-15T14:34:19;18.20;68.70
3770;DHT22;1900;48.890;9.190;2022-11-15T14:36:47;18.20;68.70
3770;DHT22;1900;48.890;9.190;2022-11-15T14:39:13;18.20;68.70
3770;DHT22;1900;48.890;9.190;2022-11-15T14:41:39;18.10;68.50
3770;DHT22;1900;48.890;9.190;2022-11-15T14:44:05;18.10;68.50
3770;DHT22;1900;48.890;9.190;2022-11-15T14:46:31;18.10;68.50
3770;DHT22;1900;48.890;9.190;2022-11-15T14:48:57;18.10;68.50
3770;DHT22;1900;48.890;9.190;2022-11-15T14:51:23;18.10;68.50
3770;DHT22;1900;48.890;9.190;2022-11-15T14:53:48;18.10;68.50
3770;DHT22;1900;48.890;9.190;2022-11-15T14:56:15;18.10;68.50
3770;DHT22;1900;48.890;9.190;2022-11-15T14:58:42;18.10;68.60
3770;DHT22;1900;48.890;9.190;2022-11-15T15:01:16;18.00;68.40
3770;DHT22;1900;48.890;9.190;2022-11-15T15:03:43;18.00;68.40
3770;DHT22;1900;48.890;9.190;2022-11-15T15:06:09;18.00;68.40
3770;DHT22;1900;48.890;9.190;2022-11-15T15:08:35;18.00;68.40
3770;DHT22;1900;48.890;9.190;2022-11-15T15:11:01;18.00;68.40
3770;DHT22;1900;48.890;9.190;2022-11-15T15:13:26;18.00;68.30
3770;DHT22;1900;48.890;9.190;2022-11-15T15:15:54;17.90;68.20
3770;DHT22;1900;48.890;9.190;2022-11-15T15:18:19;17.90;68.10
3770;DHT22;1900;48.890;9.190;2022-11-15T15:20:58;17.90;68.10
3770;DHT22;1900;48.890;9.190;2022-11-15T15:23:32;17.90;68.10
3770;DHT22;1900;48.890;9.190;2022-11-15T15:25:59;17.90;68.10
3770;DHT22;1900;48.890;9.190;2022-11-15T15:28:24;17.90;68.10
3770;DHT22;1900;48.890;9.190;2022-11-15T15:30:50;17.80;67.90
3770;DHT22;1900;48.890;9.190;2022-11-15T15:33:16;17.80;67.90
3770;DHT22;1900;48.890;9.190;2022-11-15T15:35:42;17.80;67.90
3770;DHT22;1900;48.890;9.190;2022-11-15T15:38:11;17.80;67.90
3770;DHT22;1900;48.890;9.190;2022-11-15T15:40:37;17.80;67.90
3770;DHT22;1900;48.890;9.190;2022-11-15T15:43:03;17.70;67.80
3770;DHT22;1900;48.890;9.190;2022-11-15T15:45:29;17.70;67.80
3770;DHT22;1900;48.890;9.190;2022-11-15T15:47:55;17.70;67.70
3770;DHT22;1900;48.890;9.190;2022-11-15T15:50:26;17.70;67.70
3770;DHT22;1900;48.890;9.190;2022-11-15T15:52:57;17.60;68.30
3770;DHT22;1900;48.890;9.190;2022-11-15T15:55:23;17.60;67.70
3770;DHT22;1900;48.890;9.190;2022-11-15T15:57:49;17.60;67.80
3770;DHT22;1900;48.890;9.190;2022-11-15T16:00:16;17.60;67.80
3770;DHT22;1900;48.890;9.190;2022-11-15T16:02:42;17.60;67.80
3770;DHT22;1900;48.890;9.190;2022-11-15T16:05:09;17.60;67.70
3770;DHT22;1900;48.890;9.190;2022-11-15T16:07:35;17.60;67.70
3770;DHT22;1900;48.890;9.190;2022-11-15T16:10:35;17.60;67.70
3770;DHT22;1900;48.890;9.190;2022-11-15T16:12:55;17.50;67.70
3770;DHT22;1900;48.890;9.190;2022-11-15T16:15:22;17.50;67.60
3770;DHT22;1900;48.890;9.190;2022-11-15T16:17:54;17.50;67.70
3770;DHT22;1900;48.890;9.190;2022-11-15T16:23:12;17.50;67.70
3770;DHT22;1900;48.890;9.190;2022-11-15T16:28:25;17.40;67.70
3770;DHT22;1900;48.890;9.190;2022-11-15T16:33:29;17.40;68.20
3770;DHT22;1900;48.890;9.190;2022-11-15T16:35:55;17.40;67.60
3770;DHT22;1900;48.890;9.190;2022-11-15T16:38:21;17.40;67.60
3770;DHT22;1900;48.890;9.190;2022-11-15T16:40:47;17.30;67.50
3770;DHT22;1900;48.890;9.190;2022-11-15T16:43:12;17.30;67.60
3770;DHT22;1900;48.890;9.190;2022-11-15T16:45:38;17.30;67.50
3770;DHT22;1900;48.890;9.190;2022-11-15T16:48:04;17.30;67.50
3770;DHT22;1900;48.890;9.190;2022-11-15T16:50:33;17.30;67.50
3770;DHT22;1900;48.890;9.190;2022-11-15T16:53:04;17.30;67.60
3770;DHT22;1900;48.890;9.190;2022-11-15T16:55:29;17.30;67.50
3770;DHT22;1900;48.890;9.190;2022-11-15T16:57:56;17.30;67.60
3770;DHT22;1900;48.890;9.190;2022-11-15T17:00:26;17.30;67.50
3770;DHT22;1900;48.890;9.190;2022-11-15T17:02:52;17.30;67.60
3770;DHT22;1900;48.890;9.190;2022-11-15T17:05:21;17.30;67.60
3770;DHT22;1900;48.890;9.190;2022-11-15T17:07:49;17.30;67.60
3770;DHT22;1900;48.890;9.190;2022-11-15T17:10:16;17.20;67.40
3770;DHT22;1900;48.890;9.190;2022-11-15T17:12:42;17.20;67.40
3770;DHT22;1900;48.890;9.190;2022-11-15T17:15:11;17.20;67.40
3770;DHT22;1900;48.890;9.190;2022-11-15T17:17:37;17.20;67.40
3770;DHT22;1900;48.890;9.190;2022-11-15T17:20:03;17.20;67.40
3770;DHT22;1900;48.890;9.190;2022-11-15T17:22:29;17.20;67.40
3770;DHT22;1900;48.890;9.190;2022-11-15T17:24:55;17.20;67.50
3770;DHT22;1900;48.890;9.190;2022-11-15T17:27:21;17.20;67.50
3770;DHT22;1900;48.890;9.190;2022-11-15T17:29:48;17.20;67.50
3770;DHT22;1900;48.890;9.190;2022-11-15T17:32:13;17.20;67.50
3770;DHT22;1900;48.890;9.190;2022-11-15T17:34:39;17.20;67.50
3770;DHT22;1900;48.890;9.190;2022-11-15T17:37:05;17.20;67.50
3770;DHT22;1900;48.890;9.190;2022-11-15T17:39:30;17.20;67.50
3770;DHT22;1900;48.890;9.190;2022-11-15T17:41:56;17.10;67.40
3770;DHT22;1900;48.890;9.190;2022-11-15T17:44:22;17.10;67.40
3770;DHT22;1900;48.890;9.190;2022-11-15T17:46:47;17.10;67.40
3770;DHT22;1900;48.890;9.190;2022-11-15T17:49:13;17.10;67.40
3770;DHT22;1900;48.890;9.190;2022-11-15T17:51:39;17.10;67.40
3770;DHT22;1900;48.890;9.190;2022-11-15T17:54:04;17.10;67.40
3770;DHT22;1900;48.890;9.190;2022-11-15T17:56:30;17.10;67.40
3770;DHT22;1900;48.890;9.190;2022-11-15T17:58:57;17.10;67.40
3770;DHT22;1900;48.890;9.190;2022-11-15T18:01:31;17.10;67.40
3770;DHT22;1900;48.890;9.190;2022-11-15T18:03:58;17.10;67.30
3770;DHT22;1900;48.890;9.190;2022-11-15T18:06:26;17.10;67.30
3770;DHT22;1900;48.890;9.190;2022-11-15T18:08:53;17.10;67.30
3770;DHT22;1900;48.890;9.190;2022-11-15T18:13:53;17.10;67.30
3770;DHT22;1900;48.890;9.190;2022-11-15T18:16:22;17.10;67.30
3770;DHT22;1900;48.890;9.190;2022-11-15T18:18:51;17.10;67.40
3770;DHT22;1900;48.890;9.190;2022-11-15T18:21:19;17.10;67.40
3770;DHT22;1900;48.890;9.190;2022-11-15T18:23:47;17.00;67.30
3770;DHT22;1900;48.890;9.190;2022-11-15T18:26:15;17.10;67.50
3770;DHT22;1900;48.890;9.190;2022-11-15T18:28:47;17.00;67.40
3770;DHT22;1900;48.890;9.190;2022-11-15T18:31:15;17.00;67.40
3770;DHT22;1900;48.890;9.190;2022-11-15T18:33:42;17.00;67.40
3770;DHT22;1900;48.890;9.190;2022-11-15T18:36:11;17.00;67.40
3770;DHT22;1900;48.890;9.190;2022-11-15T18:38:37;17.00;67.40
3770;DHT22;1900;48.890;9.190;2022-11-15T18:41:12;17.00;67.50
3770;DHT22;1900;48.890;9.190;2022-11-15T18:43:39;17.00;67.50
3770;DHT22;1900;48.890;9.190;2022-11-15T18:46:14;17.00;67.40
3770;DHT22;1900;48.890;9.190;2022-11-15T18:48:41;17.00;67.40
3770;DHT22;1900;48.890;9.190;2022-11-15T18:51:13;17.00;67.40
3770;DHT22;1900;48.890;9.190;2022-11-15T18:53:39;17.10;67.50
3770;DHT22;1900;48.890;9.190;2022-11-15T18:58:35;17.10;67.50
3770;DHT22;1900;48.890;9.190;2022-11-15T19:01:08;17.00;67.40
3770;DHT22;1900;48.890;9.190;2022-11-15T19:03:35;17.00;67.40
3770;DHT22;1900;48.890;9.190;2022-11-15T19:06:06;17.00;67.40
3770;DHT22;1900;48.890;9.190;2022-11-15T19:08:39;17.00;67.40
3770;DHT22;1900;48.890;9.190;2022-11-15T19:11:12;17.00;67.40
3770;DHT22;1900;48.890;9.190;2022-11-15T19:13:38;17.00;67.40
3770;DHT22;1900;48.890;9.190;2022-11-15T19:16:05;17.00;67.40
3770;DHT22;1900;48.890;9.190;2022-11-15T19:18:32;17.00;67.40
3770;DHT22;1900;48.890;9.190;2022-11-15T19:21:07;17.00;67.40
3770;DHT22;1900;48.890;9.190;2022-11-15T19:23:34;17.00;67.40
3770;DHT22;1900;48.890;9.190;2022-11-15T19:26:01;17.00;67.40
3770;DHT22;1900;48.890;9.190;2022-11-15T19:28:29;17.00;67.40
3770;DHT22;1900;48.890;9.190;2022-11-15T19:31:11;17.00;68.10
3770;DHT22;1900;48.890;9.190;2022-11-15T19:33:38;17.00;67.50
3770;DHT22;1900;48.890;9.190;2022-11-15T19:36:13;16.90;67.40
3770;DHT22;1900;48.890;9.190;2022-11-15T19:38:39;16.90;67.50
3770;DHT22;1900;48.890;9.190;2022-11-15T19:41:08;16.90;67.50
3770;DHT22;1900;48.890;9.190;2022-11-15T19:43:34;17.00;67.60
3770;DHT22;1900;48.890;9.190;2022-11-15T19:46:02;16.90;67.40
3770;DHT22;1900;48.890;9.190;2022-11-15T19:48:32;16.90;67.50
3770;DHT22;1900;48.890;9.190;2022-11-15T19:51:00;16.90;67.40
3770;DHT22;1900;48.890;9.190;2022-11-15T19:53:26;16.90;67.40
3770;DHT22;1900;48.890;9.190;2022-11-15T19:55:56;16.90;67.40
3770;DHT22;1900;48.890;9.190;2022-11-15T19:58:22;16.90;67.40
3770;DHT22;1900;48.890;9.190;2022-11-15T20:00:49;16.90;67.40
3770;DHT22;1900;48.890;9.190;2022-11-15T20:03:15;16.90;67.40
3770;DHT22;1900;48.890;9.190;2022-11-15T20:05:40;16.90;67.40
3770;DHT22;1900;48.890;9.190;2022-11-15T20:08:06;16.80;67.40
3770;DHT22;1900;48.890;9.190;2022-11-15T20:10:33;16.80;67.40
3770;DHT22;1900;48.890;9.190;2022-11-15T20:12:59;16.80;67.40
3770;DHT22;1900;48.890;9.190;2022-11-15T20:15:24;16.80;67.40
3770;DHT22;1900;48.890;9.190;2022-11-15T20:17:50;16.80;67.40
3770;DHT22;1900;48.890;9.190;2022-11-15T20:20:16;16.80;67.40
3770;DHT22;1900;48.890;9.190;2022-11-15T20:22:41;16.80;67.40
3770;DHT22;1900;48.890;9.190;2022-11-15T20:25:08;16.80;67.40
3770;DHT22;1900;48.890;9.190;2022-11-15T20:27:34;16.80;67.40